createdAt,value
2023-05-10T00:00:17.752Z,21.29
2023-05-10T00:03:23.886Z,21.34
2023-05-10T00:06:27.160Z,21.31
2023-05-10T00:09:30.167Z,21.32
2023-05-10T00:12:33.235Z,21.32
2023-05-10T00:15:36.668Z,21.20
2023-05-10T00:18:41.233Z,21.30
2023-05-10T00:21:44.286Z,21.31
2023-05-10T00:24:47.336Z,21.26
2023-05-10T00:27:50.601Z,21.29
2023-05-10T00:30:53.679Z,21.28
2023-05-10T00:33:58.352Z,21.28
2023-05-10T00:37:01.405Z,21.27
2023-05-10T00:40:04.521Z,21.20
2023-05-10T00:43:07.572Z,21.24
2023-05-10T00:46:10.679Z,21.21
2023-05-10T00:49:15.290Z,21.25
2023-05-10T00:52:18.432Z,21.24
2023-05-10T00:55:22.613Z,21.24
2023-05-10T00:58:29.209Z,21.20
2023-05-10T01:01:33.334Z,21.18
2023-05-10T01:04:38.294Z,21.19
2023-05-10T01:07:42.195Z,21.18
2023-05-10T01:10:46.657Z,21.19
2023-05-10T01:13:54.905Z,21.17
2023-05-10T01:16:58.433Z,21.15
2023-05-10T01:20:02.997Z,21.18
2023-05-10T01:23:33.137Z,21.06
2023-05-10T01:27:00.540Z,21.14
2023-05-10T01:30:41.519Z,21.13
2023-05-10T01:33:51.743Z,21.14
2023-05-10T01:37:00.787Z,21.14
2023-05-10T01:40:12.552Z,21.11
2023-05-10T01:46:29.576Z,21.11
2023-05-10T01:49:42.036Z,21.10
2023-05-10T01:52:47.018Z,21.08
2023-05-10T01:55:53.466Z,21.08
2023-05-10T01:58:59.018Z,21.09
2023-05-10T02:02:04.251Z,21.09
2023-05-10T02:05:10.398Z,21.01
2023-05-10T02:08:14.513Z,21.07
2023-05-10T02:11:19.754Z,21.09
2023-05-10T02:14:25.515Z,21.08
2023-05-10T02:17:29.825Z,21.06
2023-05-10T02:20:35.546Z,21.03
2023-05-10T02:23:40.365Z,21.02
2023-05-10T02:26:45.692Z,21.04
2023-05-10T02:29:49.496Z,21.04
2023-05-10T02:32:53.782Z,21.00
2023-05-10T02:35:58.908Z,21.03
2023-05-10T02:39:04.140Z,21.00
2023-05-10T02:42:07.837Z,21.02
2023-05-10T02:45:15.554Z,21.06
2023-05-10T02:48:19.099Z,21.02
2023-05-10T02:51:27.361Z,20.81
2023-05-10T02:54:35.454Z,21.03
2023-05-10T02:57:43.068Z,21.03
2023-05-10T03:00:46.352Z,21.01
2023-05-10T03:03:49.439Z,21.01
2023-05-10T03:06:54.231Z,21.02
2023-05-10T03:09:57.400Z,21.01
2023-05-10T03:13:13.702Z,21.03
2023-05-10T03:16:19.221Z,21.02
2023-05-10T03:19:28.664Z,21.06
2023-05-10T03:22:36.581Z,21.10
2023-05-10T03:25:42.010Z,21.13
2023-05-10T03:28:45.967Z,21.12
2023-05-10T03:31:49.241Z,21.13
2023-05-10T03:34:52.598Z,21.10
2023-05-10T03:37:57.071Z,21.10
2023-05-10T03:41:00.094Z,21.10
2023-05-10T03:44:03.383Z,21.09
2023-05-10T03:47:06.581Z,20.93
2023-05-10T03:50:11.337Z,21.07
2023-05-10T03:53:15.819Z,21.06
2023-05-10T03:56:18.941Z,21.04
2023-05-10T03:59:21.972Z,21.07
2023-05-10T04:02:25.277Z,21.08
2023-05-10T04:05:28.486Z,21.05
2023-05-10T04:08:33.426Z,20.89
2023-05-10T04:11:36.468Z,20.96
2023-05-10T04:14:39.566Z,20.91
2023-05-10T04:17:42.651Z,20.91
2023-05-10T04:20:45.793Z,20.87
2023-05-10T04:23:50.300Z,20.87
2023-05-10T04:26:53.861Z,20.70
2023-05-10T04:29:57.752Z,20.86
2023-05-10T04:33:00.972Z,20.84
2023-05-10T04:36:04.444Z,20.82
2023-05-10T04:39:09.519Z,20.81
2023-05-10T04:42:12.856Z,20.81
2023-05-10T04:45:16.726Z,20.77
2023-05-10T04:48:19.747Z,20.79
2023-05-10T04:51:22.839Z,20.77
2023-05-10T04:54:27.492Z,20.75
2023-05-10T04:57:30.490Z,20.74
2023-05-10T05:00:33.603Z,20.76
2023-05-10T05:03:36.776Z,20.76
2023-05-10T05:06:39.843Z,20.72
2023-05-10T05:09:44.282Z,20.72
2023-05-10T05:12:47.382Z,20.71
2023-05-10T05:15:50.431Z,20.72
2023-05-10T05:18:53.503Z,20.71
2023-05-10T05:21:56.473Z,20.68
2023-05-10T05:25:01.639Z,20.58
2023-05-10T05:28:04.672Z,20.67
2023-05-10T05:31:08.775Z,20.67
2023-05-10T05:34:11.993Z,20.68
2023-05-10T05:37:16.334Z,20.66
2023-05-10T05:40:21.482Z,20.66
2023-05-10T05:43:24.856Z,20.63
2023-05-10T05:46:27.898Z,20.65
2023-05-10T05:49:31.056Z,20.64
2023-05-10T05:52:34.129Z,20.58
2023-05-10T05:55:38.650Z,20.57
2023-05-10T05:58:41.909Z,20.61
2023-05-10T06:01:44.924Z,20.63
2023-05-10T06:04:47.995Z,20.59
2023-05-10T06:07:51.075Z,20.62
2023-05-10T06:10:55.496Z,20.60
2023-05-10T06:13:58.504Z,20.61
2023-05-10T06:17:02.082Z,20.60
2023-05-10T06:20:06.336Z,20.56
2023-05-10T06:23:09.415Z,20.58
2023-05-10T06:26:14.895Z,20.59
2023-05-10T06:29:17.974Z,20.57
2023-05-10T06:32:21.053Z,20.59
2023-05-10T06:35:24.272Z,20.59
2023-05-10T06:38:27.445Z,20.57
2023-05-10T06:41:31.919Z,20.58
2023-05-10T06:44:34.974Z,20.56
2023-05-10T06:47:39.201Z,20.55
2023-05-10T06:50:42.644Z,20.54
2023-05-10T06:53:45.681Z,20.56
2023-05-10T06:56:50.284Z,20.55
2023-05-10T06:59:54.120Z,20.42
2023-05-10T07:02:57.229Z,20.56
2023-05-10T07:06:05.436Z,20.52
2023-05-10T07:09:08.741Z,20.50
2023-05-10T07:12:15.302Z,20.50
2023-05-10T07:15:19.467Z,20.47
2023-05-10T07:18:22.702Z,20.51
2023-05-10T07:21:26.329Z,20.49
2023-05-10T07:24:29.366Z,20.47
2023-05-10T07:27:33.833Z,20.59
2023-05-10T07:30:37.219Z,20.67
2023-05-10T07:33:40.987Z,20.55
2023-05-10T07:36:44.011Z,20.76
2023-05-10T07:39:47.084Z,20.81
2023-05-10T07:42:51.569Z,20.83
2023-05-10T07:45:56.273Z,20.84
2023-05-10T07:48:59.695Z,20.82
2023-05-10T07:52:02.748Z,20.85
2023-05-10T07:55:06.498Z,20.86
2023-05-10T07:58:10.957Z,20.72
2023-05-10T08:01:14.093Z,20.86
2023-05-10T08:04:17.166Z,20.87
2023-05-10T08:07:20.303Z,20.73
2023-05-10T08:10:23.302Z,20.87
2023-05-10T08:13:27.960Z,20.87
2023-05-10T08:16:31.084Z,20.85
2023-05-10T08:19:34.148Z,20.84
2023-05-10T08:22:37.313Z,20.83
2023-05-10T08:25:40.338Z,20.83
2023-05-10T08:28:44.838Z,20.78
2023-05-10T08:31:47.975Z,20.86
2023-05-10T08:34:50.989Z,20.70
2023-05-10T08:37:54.025Z,20.85
2023-05-10T08:40:59.731Z,20.68
2023-05-10T08:44:07.233Z,20.84
2023-05-10T08:47:12.581Z,20.81
2023-05-10T08:50:17.317Z,20.84
2023-05-10T08:53:22.180Z,20.80
2023-05-10T08:56:25.563Z,20.72
2023-05-10T08:59:30.608Z,20.65
2023-05-10T09:02:33.748Z,20.66
2023-05-10T09:05:38.467Z,20.64
2023-05-10T09:08:43.892Z,20.60
2023-05-10T09:11:47.322Z,20.59
2023-05-10T09:14:52.921Z,20.59
2023-05-10T09:17:57.397Z,20.56
2023-05-10T09:21:00.487Z,20.51
2023-05-10T09:24:06.272Z,20.55
2023-05-10T09:27:09.270Z,20.56
2023-05-10T09:30:18.190Z,20.54
2023-05-10T09:33:21.312Z,20.55
2023-05-10T09:36:24.305Z,20.55
2023-05-10T09:39:34.169Z,20.55
2023-05-10T09:42:37.298Z,20.56
2023-05-10T09:45:43.607Z,20.55
2023-05-10T09:48:48.224Z,20.53
2023-05-10T09:52:03.539Z,20.50
2023-05-10T09:55:07.287Z,20.49
2023-05-10T09:58:12.032Z,20.38
2023-05-10T10:01:16.684Z,20.51
2023-05-10T10:04:19.847Z,20.49
2023-05-10T10:07:26.593Z,20.47
2023-05-10T10:10:30.626Z,20.48
2023-05-10T10:13:34.315Z,20.60
2023-05-10T10:16:48.450Z,20.69
2023-05-10T10:19:55.050Z,20.61
2023-05-10T10:22:58.148Z,20.57
2023-05-10T10:26:01.990Z,20.51
2023-05-10T10:29:18.617Z,20.51
2023-05-10T10:32:31.817Z,20.53
2023-05-10T10:35:35.396Z,20.51
2023-05-10T10:38:40.754Z,20.50
2023-05-10T10:41:52.284Z,20.40
2023-05-10T10:45:14.211Z,20.47
2023-05-10T10:48:25.934Z,20.44
2023-05-10T10:51:32.279Z,20.30
2023-05-10T10:54:35.289Z,20.46
2023-05-10T10:57:49.786Z,20.39
2023-05-10T11:01:11.012Z,20.41
2023-05-10T11:04:22.662Z,20.39
2023-05-10T11:07:25.823Z,20.45
2023-05-10T11:10:29.810Z,20.40
2023-05-10T11:13:34.835Z,20.40
2023-05-10T11:16:44.064Z,20.41
2023-05-10T11:20:08.595Z,20.41
2023-05-10T11:23:17.008Z,20.30
2023-05-10T11:26:24.201Z,20.31
2023-05-10T11:29:27.704Z,20.40
2023-05-10T11:32:31.678Z,20.40
2023-05-10T11:35:43.145Z,20.30
2023-05-10T11:38:46.807Z,20.38
2023-05-10T11:41:51.323Z,20.14
2023-05-10T11:44:54.546Z,20.40
2023-05-10T11:47:59.054Z,20.41
2023-05-10T11:51:04.750Z,20.39
2023-05-10T11:54:10.193Z,20.37
2023-05-10T11:57:13.284Z,20.37
2023-05-10T12:00:17.276Z,20.39
2023-05-10T12:03:21.060Z,20.36
2023-05-10T12:06:29.106Z,20.38
2023-05-10T12:09:43.372Z,20.36
2023-05-10T12:12:48.566Z,20.37
2023-05-10T12:15:51.636Z,20.34
2023-05-10T12:18:56.187Z,20.30
2023-05-10T12:22:01.202Z,20.36
2023-05-10T12:25:05.300Z,20.43
2023-05-10T12:28:09.716Z,20.60
2023-05-10T12:31:12.942Z,20.60
2023-05-10T12:34:25.594Z,20.48
2023-05-10T12:37:31.573Z,20.46
2023-05-10T12:40:34.639Z,20.41
2023-05-10T12:43:38.633Z,20.40
2023-05-10T12:46:41.621Z,20.39
2023-05-10T12:49:44.759Z,20.39
2023-05-10T12:52:49.180Z,20.38
2023-05-10T12:55:52.228Z,20.34
2023-05-10T12:58:55.270Z,20.35
2023-05-10T13:01:59.467Z,20.33
2023-05-10T13:05:02.604Z,20.33
2023-05-10T13:08:07.484Z,20.31
2023-05-10T13:11:10.552Z,20.17
2023-05-10T13:14:14.386Z,20.29
2023-05-10T13:17:17.430Z,20.19
2023-05-10T13:20:20.625Z,20.27
2023-05-10T13:23:25.087Z,20.31
2023-05-10T13:26:28.108Z,20.29
2023-05-10T13:29:31.121Z,20.26
2023-05-10T13:32:34.892Z,20.27
2023-05-10T13:35:37.982Z,20.27
2023-05-10T13:38:42.458Z,20.27
2023-05-10T13:41:45.479Z,20.24
2023-05-10T13:44:48.538Z,20.14
2023-05-10T13:47:51.627Z,20.24
2023-05-10T13:50:54.705Z,20.25
2023-05-10T13:53:59.092Z,20.25
2023-05-10T13:57:02.290Z,20.17
2023-05-10T14:00:06.462Z,20.18
2023-05-10T14:03:12.096Z,20.19
2023-05-10T14:06:15.539Z,20.23
2023-05-10T14:09:22.621Z,20.23
2023-05-10T14:12:25.663Z,20.23
2023-05-10T14:15:28.927Z,20.22
2023-05-10T14:18:32.188Z,20.23
2023-05-10T14:21:35.595Z,20.23
2023-05-10T14:24:40.472Z,20.08
2023-05-10T14:27:43.552Z,20.20
2023-05-10T14:30:46.659Z,20.13
2023-05-10T14:33:49.869Z,20.20
2023-05-10T14:36:52.956Z,20.19
2023-05-10T14:39:57.412Z,20.13
2023-05-10T14:43:00.484Z,19.98
2023-05-10T14:46:03.769Z,20.15
2023-05-10T14:49:06.818Z,20.21
2023-05-10T14:52:09.881Z,20.20
2023-05-10T14:55:14.451Z,20.23
2023-05-10T14:58:17.537Z,20.23
2023-05-10T15:01:20.668Z,20.23
2023-05-10T15:04:25.452Z,20.31
2023-05-10T15:07:30.170Z,20.33
2023-05-10T15:10:34.647Z,20.39
2023-05-10T15:13:37.707Z,20.41
2023-05-10T15:16:40.747Z,20.41
2023-05-10T15:19:43.902Z,20.38
2023-05-10T15:22:46.929Z,20.42
2023-05-10T15:25:51.431Z,20.41
2023-05-10T15:28:55.311Z,20.41
2023-05-10T15:31:58.284Z,20.42
2023-05-10T15:35:01.788Z,20.40
2023-05-10T15:38:04.758Z,20.45
2023-05-10T15:41:09.095Z,20.49
2023-05-10T15:44:12.100Z,20.48
2023-05-10T15:47:15.081Z,20.43
2023-05-10T15:50:18.416Z,20.21
2023-05-10T15:53:21.525Z,20.32
2023-05-10T15:56:26.825Z,20.31
2023-05-10T15:59:29.862Z,20.26
2023-05-10T16:02:33.068Z,20.27
2023-05-10T16:05:36.204Z,20.25
2023-05-10T16:08:39.276Z,20.10
2023-05-10T16:11:44.341Z,20.24
2023-05-10T16:14:47.683Z,20.24
2023-05-10T16:17:51.235Z,20.23
2023-05-10T16:20:54.714Z,20.15
2023-05-10T16:23:57.940Z,20.15
2023-05-10T16:27:03.205Z,20.20
2023-05-10T16:30:07.644Z,20.18
2023-05-10T16:33:10.681Z,20.18
2023-05-10T16:36:13.741Z,20.18
2023-05-10T16:39:16.731Z,20.17
2023-05-10T16:42:21.153Z,20.16
2023-05-10T16:45:24.620Z,20.14
2023-05-10T16:48:27.613Z,20.15
2023-05-10T16:51:30.745Z,20.11
2023-05-10T16:54:33.821Z,20.15
2023-05-10T16:57:38.319Z,20.22
2023-05-10T17:00:41.436Z,20.47
2023-05-10T17:03:44.759Z,20.43
2023-05-10T17:06:48.012Z,20.58
2023-05-10T17:09:51.043Z,20.55
2023-05-10T17:12:55.503Z,20.63
2023-05-10T17:15:59.080Z,20.63
2023-05-10T17:19:02.199Z,20.64
2023-05-10T17:22:05.298Z,20.64
2023-05-10T17:25:09.301Z,20.66
2023-05-10T17:28:13.843Z,20.64
2023-05-10T17:31:17.165Z,20.63
2023-05-10T17:34:20.251Z,20.61
2023-05-10T17:37:23.311Z,20.60
2023-05-10T17:40:26.271Z,20.60
2023-05-10T17:43:30.677Z,20.67
2023-05-10T17:46:33.676Z,20.68
2023-05-10T17:49:36.851Z,20.65
2023-05-10T17:52:39.956Z,20.55
2023-05-10T17:55:43.900Z,20.70
2023-05-10T17:58:48.338Z,20.68
2023-05-10T18:01:51.387Z,20.71
2023-05-10T18:04:55.186Z,20.73
2023-05-10T18:07:59.844Z,20.77
2023-05-10T18:11:02.907Z,21.41
2023-05-10T18:14:07.277Z,22.31
2023-05-10T18:17:11.029Z,22.99
2023-05-10T18:20:14.282Z,23.36
2023-05-10T18:23:17.278Z,23.63
2023-05-10T18:26:20.311Z,23.81
2023-05-10T18:29:24.727Z,23.99
2023-05-10T18:32:28.019Z,24.26
2023-05-10T18:35:31.090Z,24.53
2023-05-10T18:38:34.225Z,24.74
2023-05-10T18:41:37.415Z,24.85
2023-05-10T18:44:41.847Z,25.03
2023-05-10T18:47:45.057Z,25.08
2023-05-10T18:50:48.578Z,25.23
2023-05-10T18:53:51.793Z,25.29
2023-05-10T18:56:54.831Z,25.17
2023-05-10T18:59:59.230Z,25.22
2023-05-10T19:03:02.349Z,25.23
2023-05-10T19:06:05.517Z,25.31
2023-05-10T19:09:09.919Z,25.26
2023-05-10T19:12:12.996Z,25.22
2023-05-10T19:15:19.221Z,25.25
2023-05-10T19:18:24.476Z,25.22
2023-05-10T19:21:27.856Z,25.05
2023-05-10T19:24:31.038Z,25.05
2023-05-10T19:27:34.171Z,25.07
2023-05-10T19:30:38.631Z,25.11
2023-05-10T19:33:41.694Z,25.06
2023-05-10T19:36:44.999Z,24.68
2023-05-10T19:39:48.118Z,23.84
2023-05-10T19:42:51.324Z,23.34
2023-05-10T19:45:56.082Z,23.02
2023-05-10T19:48:59.180Z,22.85
2023-05-10T19:52:02.238Z,22.73
2023-05-10T19:55:05.937Z,22.59
2023-05-10T19:58:09.079Z,22.47
2023-05-10T20:01:13.817Z,22.30
2023-05-10T20:04:16.945Z,22.25
2023-05-10T20:07:20.013Z,22.17
2023-05-10T20:10:25.184Z,22.12
2023-05-10T20:13:29.990Z,22.07
2023-05-10T20:16:34.498Z,22.02
2023-05-10T20:19:37.640Z,21.96
2023-05-10T20:22:41.088Z,21.89
2023-05-10T20:25:44.467Z,21.72
2023-05-10T20:28:47.512Z,21.75
2023-05-10T20:31:52.055Z,21.69
2023-05-10T20:34:55.441Z,21.68
2023-05-10T20:38:00.073Z,21.62
2023-05-10T20:41:03.127Z,21.59
2023-05-10T20:44:06.768Z,21.54
2023-05-10T20:47:11.368Z,21.51
2023-05-10T20:50:14.589Z,21.48
2023-05-10T20:53:18.557Z,21.45
2023-05-10T20:56:21.834Z,21.46
2023-05-10T20:59:24.926Z,21.42
2023-05-10T21:02:29.484Z,21.39
2023-05-10T21:05:32.717Z,21.38
2023-05-10T21:08:35.941Z,21.38
2023-05-10T21:11:39.482Z,21.37
2023-05-10T21:14:43.174Z,21.30
2023-05-10T21:17:47.719Z,21.22
2023-05-10T21:20:50.759Z,21.29
2023-05-10T21:23:53.784Z,21.28
2023-05-10T21:26:56.844Z,21.22
2023-05-10T21:29:59.953Z,21.23
2023-05-10T21:33:04.603Z,21.15
2023-05-10T21:36:08.586Z,21.14
2023-05-10T21:39:12.206Z,21.10
2023-05-10T21:42:15.328Z,21.12
2023-05-10T21:45:18.909Z,20.85
2023-05-10T21:48:23.407Z,21.10
2023-05-10T21:51:26.415Z,21.06
2023-05-10T21:57:32.959Z,21.06
2023-05-10T22:00:36.115Z,21.05
2023-05-10T22:03:40.633Z,21.05
2023-05-10T22:06:44.266Z,21.02
2023-05-10T22:09:47.440Z,21.01
2023-05-10T22:12:50.526Z,20.97
2023-05-10T22:15:53.648Z,20.98
2023-05-10T22:18:58.242Z,20.85
2023-05-10T22:22:01.408Z,20.96
2023-05-10T22:25:04.663Z,20.93
2023-05-10T22:28:09.339Z,20.92
2023-05-10T22:31:12.823Z,20.93
2023-05-10T22:34:17.335Z,20.90
2023-05-10T22:37:20.409Z,20.86
2023-05-10T22:40:23.488Z,20.72
2023-05-10T22:43:26.546Z,20.63
2023-05-10T22:46:30.450Z,20.85
2023-05-10T22:49:35.048Z,20.76
2023-05-10T22:52:39.449Z,20.68
2023-05-10T22:55:42.652Z,20.83
2023-05-10T22:58:45.803Z,20.83
2023-05-10T23:01:49.305Z,20.71
2023-05-10T23:04:53.768Z,20.78
2023-05-10T23:07:56.902Z,20.79
2023-05-10T23:11:00.007Z,20.73
2023-05-10T23:14:03.133Z,20.77
2023-05-10T23:17:06.329Z,20.77
2023-05-10T23:20:12.427Z,20.80
2023-05-10T23:23:15.842Z,20.75
2023-05-10T23:26:18.847Z,20.75
2023-05-10T23:29:22.001Z,20.67
2023-05-10T23:32:25.082Z,20.71
2023-05-10T23:35:29.587Z,20.69
2023-05-10T23:38:32.629Z,20.65
2023-05-10T23:41:35.731Z,20.67
2023-05-10T23:44:38.804Z,20.69
2023-05-10T23:47:42.030Z,20.68
2023-05-10T23:50:47.169Z,20.67
2023-05-10T23:53:50.268Z,20.68
2023-05-10T23:56:53.423Z,20.68
2023-05-10T23:59:56.457Z,20.66
